Aérodrome :
LOGIN :

S'inscrire | Disclaimer

   EN    FR    IT 

 










Légende :    VFR   VFR Marginal   IFR   IFR Intensif   IFR Très Intensif
Visi : 
Plafond : 
>= 8 km
>= 3000ft
5 à 8 km
1000 à 3000 ft
1500m à 5 km
500 à 1000 ft
800 à 1500m
200 à 500 ft
< 800m
< 200 ft
Symboles :   Orages  Brouillard  Fortes neiges  Fortes précipitations  Vent > 20 kt
SIGMETs :   Divers  Orages  Givrage  Turbulence  Onde Orograph.  Cendres Volcan.







- Altitude de l'aérodrome : 1187 ft


LIBV - Gioia del Colle Bari

DERNIER METAR :
  • 281055Z 18012KT CAVOK 34/09 Q1011 RMK BKN SCT140 BKN230 VIS MIN 9999 WIND THR32 19010KT WIND THR14 17013KT BLU

METARs EXPIRÉS :
  • 280955Z 17012KT CAVOK 32/09 Q1011 RMK BKN SCT140 BKN200 VIS MIN 9999 WIND THR32 19009KT 130V250 WIND THR14 18011KT BLU
  • 280855Z 21008KT 170V260 CAVOK 33/08 Q1011 RMK BKN FEW140 BKN200 VIS MIN 9999 WIND THR32 VRB06KT WIND THR14 20009KT 160V250 BLU

TAF TAF LIBV
Valide du 28 à 12h jusqu'au 28 à 21h UTC


281100Z 2812/2821 18013KT 9999 SCT030
TEMPO 2812/2815 18015G25KT
Pas de NOTAMs connus pour ce terrain.



MET'MAP, la Météo Aéronautique d'un coup d'oeil ! - Copyright ORBIFLY Décembre 2007 - Disclaimer

ORBIFLY MET'MAP TEAM :

Programmation & Développement : Alexandra Zaïnal
Conception & Développement : Baudouin d'Aumeries
Co-Programmation & Développement : Marc-Olivier Méhu
Soutien technique & logistique : Manuel Goepfert

Contact : metmap@orbifly.com




SOURCES & CREDITS :

   NOAA